Etusivu
METAR-TAF:

METAR-TAF

Lentoasemat :

Monticello, Kentucky, Yhdysvallat

Leveyspiiri: 36-51-19N, Pituuspiiri: 084-51-22W, korkeus merenpinnasta: 294 m

Tämänhetkinen sää

Tämä raportti tehtiin 24 minuuttia sitten, kello 15.56 UTC
Tuuli 6 kn eri suunnista
Lämpötila 4°C
Kosteus 32%
Ilmanpaine 1033 hPa
Näkyvyys: 16.1 km
selkeää

METAR: KEKQ 221556Z AUTO VRB06KT 10SM CLR 04/M11 A3049 RMK AO2 SLP333 T00441106 PNO $

Aika: 11:20 (16:20 UTC)


TAF: puuttuu

Säähavainnot ja -ennusteet yli 4000 lentoasemalta (METAR- ja TAF-raportit).

Käytössä olevat sääasemat on merkitty karttaan keltaisilla ja punaisilla pisteillä.

Aseta hiiri pisteen päälle nähdäksesi sääaseman nimen.

Klikkaa sitten nähdäksesi säähavainnot ja -ennusteet.

Kartan vaihtaminen: klikkaa mustalla rastilla varustettuja vihreitä pisteitä, niin voit zoomata sisään; viivalla varustettua vihreää pistettä, niin voit zoomata ulos tai vihreitä nuolia, niin pääset viereisille kartoille.


METAR-TAF: